Valleydale, Ohio
Current Conditions -  °F | °C
As of 12:53 AM on Wednesday 26 Nov 2014 (Local Time) from KLUK Reporting Station
Clear Clear  
Wind Chill: 25°   Ceiling: Unl
Heat Index: 32°   Visibility: 10mi
Dew Point: 27°   Wind: 8mph
Humidity: 82%   Direction: 50°NE
Pressure: 30.19"   Gusts: NA
Location:  39.1981°N, 84.4817°W
Report Text: KLUK 260553Z AUTO 05007KT 10SM CLR 00/M03 A3019 RMK AO2 SLP225 T00001028 10028 20000 58008
Loading
Personal Weather Stations






























Interactive Weather Map New forecast layout! Learn more

10-Day Weather Forecast

Advertisements
Track Severe Weather on mobile